createdAt,value
2017-11-01T00:01:42.814Z,96.60
2017-11-01T00:04:45.204Z,96.60
2017-11-01T00:07:47.226Z,96.70
2017-11-01T00:10:49.995Z,96.70
2017-11-01T00:13:52.014Z,96.70
2017-11-01T00:16:54.818Z,96.70
2017-11-01T00:19:57.527Z,96.70
2017-11-01T00:22:59.424Z,96.80
2017-11-01T00:26:01.437Z,96.80
2017-11-01T00:29:03.330Z,96.80
2017-11-01T00:32:05.306Z,96.80
2017-11-01T00:35:07.305Z,96.80
2017-11-01T00:38:09.241Z,96.80
2017-11-01T00:41:11.137Z,96.90
2017-11-01T00:44:13.090Z,96.80
2017-11-01T00:47:15.003Z,96.80
2017-11-01T00:50:17.046Z,96.80
2017-11-01T00:53:19.002Z,96.90
2017-11-01T00:56:20.961Z,96.90
2017-11-01T00:59:22.954Z,96.90
2017-11-01T01:02:24.872Z,96.90
2017-11-01T01:05:27.535Z,96.90
2017-11-01T01:08:29.507Z,96.90
2017-11-01T01:11:31.426Z,96.90
2017-11-01T01:14:34.135Z,96.90
2017-11-01T01:17:36.894Z,97.00
2017-11-01T01:20:39.427Z,97.00
2017-11-01T01:23:42.094Z,97.00
2017-11-01T01:26:44.399Z,97.00
2017-11-01T01:29:46.366Z,97.00
2017-11-01T01:32:48.304Z,97.00
2017-11-01T01:35:50.208Z,97.10
2017-11-01T01:38:52.541Z,97.10
2017-11-01T01:41:54.468Z,97.10
2017-11-01T01:44:56.825Z,97.20
2017-11-01T01:47:58.777Z,97.20
2017-11-01T01:51:00.859Z,97.10
2017-11-01T01:54:02.791Z,97.10
2017-11-01T01:57:04.750Z,97.20
2017-11-01T02:00:06.703Z,97.10
2017-11-01T02:03:08.814Z,97.10
2017-11-01T02:06:11.386Z,97.10
2017-11-01T02:09:13.394Z,97.10
2017-11-01T02:12:16.058Z,97.10
2017-11-01T02:15:18.359Z,97.10
2017-11-01T02:18:20.246Z,97.20
2017-11-01T02:21:22.497Z,97.20
2017-11-01T02:24:24.395Z,97.20
2017-11-01T02:27:26.722Z,97.20
2017-11-01T02:30:28.638Z,97.20
2017-11-01T02:33:30.904Z,97.20
2017-11-01T02:36:33.607Z,97.50
2017-11-01T02:39:36.596Z,97.20
2017-11-01T02:42:40.031Z,97.30
2017-11-01T02:45:42.732Z,97.30
2017-11-01T02:48:45.396Z,97.20
2017-11-01T02:51:47.691Z,97.20
2017-11-01T02:54:49.679Z,97.20
2017-11-01T02:57:51.605Z,97.30
2017-11-01T03:00:54.293Z,97.30
2017-11-01T03:03:57.522Z,97.40
2017-11-01T03:06:59.436Z,97.30
2017-11-01T03:10:01.411Z,97.40
2017-11-01T03:13:03.445Z,97.40
2017-11-01T03:16:06.553Z,97.50
2017-11-01T03:19:08.458Z,97.40
2017-11-01T03:22:10.825Z,97.50
2017-11-01T03:25:12.750Z,97.40
2017-11-01T03:28:15.395Z,97.40
2017-11-01T03:31:17.333Z,97.40
2017-11-01T03:34:19.290Z,97.40
2017-11-01T03:37:22.003Z,97.40
2017-11-01T03:40:24.324Z,97.40
2017-11-01T03:43:26.237Z,97.40
2017-11-01T03:46:28.583Z,97.50
2017-11-01T03:49:30.481Z,97.50
2017-11-01T03:52:32.775Z,97.40
2017-11-01T03:55:34.669Z,97.50
2017-11-01T03:58:36.982Z,97.50
2017-11-01T04:01:38.914Z,97.40
2017-11-01T04:04:40.845Z,97.50
2017-11-01T04:07:42.853Z,97.40
2017-11-01T04:10:44.795Z,97.50
2017-11-01T04:13:48.225Z,97.50
2017-11-01T04:16:51.331Z,97.50
2017-11-01T04:19:53.306Z,97.50
2017-11-01T04:22:55.425Z,97.50
2017-11-01T04:25:57.357Z,97.60
2017-11-01T04:28:59.283Z,97.60
2017-11-01T04:32:01.206Z,97.60
2017-11-01T04:35:03.397Z,97.60
2017-11-01T04:38:05.343Z,97.60
2017-11-01T04:41:07.724Z,97.60
2017-11-01T04:44:10.403Z,97.30
2017-11-01T04:47:12.322Z,97.70
2017-11-01T04:50:14.218Z,97.20
2017-11-01T04:53:16.656Z,97.20
2017-11-01T04:56:18.556Z,97.20
2017-11-01T04:59:21.280Z,97.30
2017-11-01T05:02:23.769Z,97.30
2017-11-01T05:05:26.126Z,97.30
2017-11-01T05:08:28.105Z,97.30
2017-11-01T05:11:30.066Z,97.30
2017-11-01T05:14:31.971Z,97.30
2017-11-01T05:17:34.362Z,97.30
2017-11-01T05:20:36.265Z,97.30
2017-11-01T05:23:39.296Z,97.40
2017-11-01T05:26:41.225Z,97.40
2017-11-01T05:29:43.503Z,97.40
2017-11-01T05:32:45.404Z,97.40
2017-11-01T05:35:47.321Z,97.40
2017-11-01T05:38:49.431Z,97.40
2017-11-01T05:41:51.766Z,97.50
2017-11-01T05:44:53.695Z,97.40
2017-11-01T05:47:55.826Z,97.40
2017-11-01T05:50:57.753Z,97.40
2017-11-01T05:53:59.685Z,97.50
2017-11-01T05:57:01.621Z,97.50
2017-11-01T06:00:03.961Z,97.50
2017-11-01T06:03:05.887Z,97.50
2017-11-01T06:06:08.224Z,97.60
2017-11-01T06:09:10.142Z,97.60
2017-11-01T06:12:13.503Z,97.60
2017-11-01T06:15:15.409Z,97.60
2017-11-01T06:18:17.426Z,97.60
2017-11-01T06:21:20.962Z,97.60
2017-11-01T06:24:23.233Z,97.60
2017-11-01T06:27:25.903Z,97.60
2017-11-01T06:30:27.826Z,97.60
2017-11-01T06:33:29.751Z,97.60
2017-11-01T06:36:32.041Z,97.60
2017-11-01T06:39:33.967Z,97.70
2017-11-01T06:42:36.722Z,97.70
2017-11-01T06:45:38.629Z,97.70
2017-11-01T06:48:40.798Z,97.60
2017-11-01T06:51:42.727Z,97.70
2017-11-01T06:54:44.690Z,97.70
2017-11-01T06:57:47.362Z,97.60
2017-11-01T07:00:49.375Z,97.70
2017-11-01T07:03:51.345Z,97.60
2017-11-01T07:06:53.329Z,97.60
2017-11-01T07:09:55.751Z,97.70
2017-11-01T07:12:57.804Z,97.70
2017-11-01T07:16:00.451Z,97.70
2017-11-01T07:19:02.393Z,97.70
2017-11-01T07:22:04.322Z,97.70
2017-11-01T07:25:06.379Z,97.70
2017-11-01T07:28:09.064Z,98.00
2017-11-01T07:31:11.845Z,97.70
2017-11-01T07:34:13.844Z,97.70
2017-11-01T07:37:15.902Z,97.70
2017-11-01T07:40:17.858Z,97.60
2017-11-01T07:43:20.198Z,97.70
2017-11-01T07:46:22.095Z,97.70
2017-11-01T07:49:25.030Z,97.70
2017-11-01T07:52:27.034Z,97.70
2017-11-01T07:55:29.461Z,97.60
2017-11-01T07:58:31.362Z,97.60
2017-11-01T08:01:34.054Z,97.60
2017-11-01T08:04:36.737Z,97.60
2017-11-01T08:07:38.937Z,97.60
2017-11-01T08:10:40.860Z,97.60
2017-11-01T08:13:43.185Z,97.60
2017-11-01T08:16:45.194Z,97.60
2017-11-01T08:19:48.050Z,97.50
2017-11-01T08:22:50.105Z,97.50
2017-11-01T08:25:52.449Z,97.50
2017-11-01T08:28:54.348Z,97.50
2017-11-01T08:31:56.635Z,97.50
2017-11-01T08:34:58.545Z,97.50
2017-11-01T08:38:00.573Z,97.70
2017-11-01T08:41:02.585Z,97.60
2017-11-01T08:44:04.507Z,97.50
2017-11-01T08:47:06.426Z,97.60
2017-11-01T08:50:08.342Z,97.50
2017-11-01T08:53:10.308Z,97.50
2017-11-01T08:56:12.299Z,97.60
2017-11-01T08:59:14.289Z,97.50
2017-11-01T09:02:16.238Z,97.50
2017-11-01T09:05:18.174Z,97.50
2017-11-01T09:08:20.131Z,97.40
2017-11-01T09:11:22.145Z,97.50
2017-11-01T09:14:24.078Z,97.50
2017-11-01T09:17:26.005Z,97.50
2017-11-01T09:20:27.979Z,97.50
2017-11-01T09:23:30.030Z,97.50
2017-11-01T09:26:32.062Z,97.50
2017-11-01T09:29:33.971Z,97.50
2017-11-01T09:32:36.041Z,97.50
2017-11-01T09:35:39.042Z,97.40
2017-11-01T09:38:40.981Z,97.50
2017-11-01T09:41:43.774Z,97.40
2017-11-01T09:44:46.526Z,97.50
2017-11-01T09:47:48.681Z,97.50
2017-11-01T09:50:50.727Z,97.50
2017-11-01T09:53:52.634Z,97.50
2017-11-01T09:56:54.674Z,97.40
2017-11-01T09:59:56.609Z,97.50
2017-11-01T10:02:58.639Z,97.40
2017-11-01T10:06:00.551Z,97.40
2017-11-01T10:09:03.327Z,97.30
2017-11-01T10:12:06.865Z,97.30
2017-11-01T10:15:08.834Z,97.30
2017-11-01T10:18:10.769Z,97.20
2017-11-01T10:21:12.715Z,97.20
2017-11-01T10:24:14.646Z,97.20
2017-11-01T10:27:16.573Z,97.20
2017-11-01T10:30:18.535Z,97.20
2017-11-01T10:33:20.548Z,97.30
2017-11-01T10:36:23.340Z,97.50
2017-11-01T10:39:25.315Z,97.20
2017-11-01T10:42:27.294Z,97.20
2017-11-01T10:45:29.270Z,97.00
2017-11-01T10:48:31.281Z,97.00
2017-11-01T10:51:34.032Z,97.00
2017-11-01T10:54:36.638Z,97.10
2017-11-01T10:57:38.573Z,97.00
2017-11-01T11:00:41.234Z,96.90
2017-11-01T11:03:43.235Z,96.80
2017-11-01T11:06:45.215Z,96.90
2017-11-01T11:09:47.202Z,96.90
2017-11-01T11:12:49.890Z,96.90
2017-11-01T11:15:51.903Z,96.90
2017-11-01T11:18:53.999Z,96.90
2017-11-01T11:21:56.791Z,96.70
2017-11-01T11:24:58.767Z,96.60
2017-11-01T11:28:00.690Z,96.60
2017-11-01T11:31:02.629Z,96.50
2017-11-01T11:34:04.561Z,96.40
2017-11-01T11:37:06.491Z,96.30
2017-11-01T11:40:08.482Z,96.30
2017-11-01T11:43:10.393Z,96.20
2017-11-01T11:46:12.343Z,96.30
2017-11-01T11:49:14.242Z,96.20
2017-11-01T11:52:16.951Z,96.00
2017-11-01T11:55:19.620Z,96.10
2017-11-01T11:58:21.587Z,96.10
2017-11-01T12:01:23.487Z,96.00
2017-11-01T12:04:25.445Z,95.90
2017-11-01T12:07:27.614Z,96.00
2017-11-01T12:10:29.566Z,96.00
2017-11-01T12:13:32.360Z,95.80
2017-11-01T12:16:35.125Z,95.60
2017-11-01T12:19:37.098Z,95.60
2017-11-01T12:22:39.054Z,95.70
2017-11-01T12:25:40.984Z,95.50
2017-11-01T12:28:42.943Z,95.50
2017-11-01T12:31:44.970Z,95.30
2017-11-01T12:34:47.761Z,95.60
2017-11-01T12:37:49.664Z,95.30
2017-11-01T12:40:52.444Z,95.20
2017-11-01T12:43:54.422Z,95.20
2017-11-01T12:46:56.406Z,95.30
2017-11-01T12:49:59.091Z,95.30
2017-11-01T12:53:01.115Z,95.30
2017-11-01T12:56:03.850Z,95.20
2017-11-01T12:59:05.981Z,95.20
2017-11-01T13:02:07.964Z,95.00
2017-11-01T13:05:09.891Z,95.00
2017-11-01T13:08:11.813Z,95.00
2017-11-01T13:11:14.287Z,95.10
2017-11-01T13:14:16.315Z,95.00
2017-11-01T13:17:18.258Z,95.00
2017-11-01T13:20:20.162Z,95.00
2017-11-01T13:23:22.133Z,95.00
2017-11-01T13:26:24.142Z,95.00
2017-11-01T13:29:26.066Z,94.80
2017-11-01T13:32:28.000Z,94.90
2017-11-01T13:35:29.925Z,94.70
2017-11-01T13:38:31.862Z,94.70
2017-11-01T13:41:33.825Z,94.70
2017-11-01T13:44:35.840Z,94.70
2017-11-01T13:47:38.610Z,94.90
2017-11-01T13:50:40.542Z,94.90
2017-11-01T13:53:43.402Z,94.70
2017-11-01T13:56:45.385Z,94.70
2017-11-01T13:59:47.305Z,94.70
2017-11-01T14:02:50.023Z,94.60
2017-11-01T14:05:52.041Z,94.60
2017-11-01T14:08:53.958Z,94.60
2017-11-01T14:11:57.375Z,95.30
2017-11-01T14:15:01.001Z,95.00
2017-11-01T14:18:03.801Z,95.00
2017-11-01T14:21:06.481Z,95.00
2017-11-01T14:24:08.473Z,95.10
2017-11-01T14:27:10.464Z,95.00
2017-11-01T14:30:12.459Z,95.00
2017-11-01T14:33:15.122Z,94.90
2017-11-01T14:36:17.107Z,94.90
2017-11-01T14:39:19.009Z,94.80
2017-11-01T14:42:21.819Z,94.70
2017-11-01T14:45:25.260Z,94.80
2017-11-01T14:48:27.307Z,94.80
2017-11-01T14:51:29.349Z,94.80
2017-11-01T14:54:31.277Z,95.20
2017-11-01T14:57:33.239Z,94.90
2017-11-01T15:00:35.249Z,95.10
2017-11-01T15:03:38.111Z,95.00
2017-11-01T15:06:40.101Z,95.00
2017-11-01T15:09:42.040Z,95.00
2017-11-01T15:12:43.982Z,95.00
2017-11-01T15:15:45.890Z,94.80
2017-11-01T15:18:48.609Z,95.00
2017-11-01T15:21:50.506Z,95.00
2017-11-01T15:24:52.433Z,95.00
2017-11-01T15:27:54.354Z,95.10
2017-11-01T15:30:56.302Z,95.10
2017-11-01T15:33:58.277Z,95.10
2017-11-01T15:37:00.229Z,95.10
2017-11-01T15:40:02.160Z,95.10
2017-11-01T15:43:05.585Z,95.70
2017-11-01T15:46:07.539Z,95.70
2017-11-01T15:49:09.523Z,95.40
2017-11-01T15:52:11.506Z,95.10
2017-11-01T15:55:14.958Z,95.10
2017-11-01T15:58:16.888Z,94.80
2017-11-01T16:01:19.694Z,94.90
2017-11-01T16:04:21.589Z,95.00
2017-11-01T16:07:23.528Z,95.10
2017-11-01T16:10:25.449Z,95.30
2017-11-01T16:13:27.417Z,95.50
2017-11-01T16:16:29.319Z,95.40
2017-11-01T16:19:31.288Z,95.50
2017-11-01T16:22:33.211Z,95.60
2017-11-01T16:25:35.991Z,95.90
2017-11-01T16:28:37.929Z,95.90
2017-11-01T16:31:39.941Z,95.70
2017-11-01T16:34:41.980Z,95.80
2017-11-01T16:37:44.030Z,95.90
2017-11-01T16:40:46.637Z,95.70
2017-11-01T16:43:48.562Z,95.70
2017-11-01T16:46:50.523Z,95.70
2017-11-01T16:49:53.425Z,95.70
2017-11-01T16:52:56.116Z,95.70
2017-11-01T16:55:58.469Z,95.70
2017-11-01T16:59:00.371Z,95.60
2017-11-01T17:02:02.304Z,95.50
2017-11-01T17:05:04.231Z,95.40
2017-11-01T17:08:06.318Z,95.30
2017-11-01T17:11:08.321Z,95.30
2017-11-01T17:14:10.310Z,95.20
2017-11-01T17:17:13.127Z,95.20
2017-11-01T17:20:15.857Z,95.20
2017-11-01T17:23:18.393Z,95.10
2017-11-01T17:26:20.345Z,95.10
2017-11-01T17:29:22.258Z,95.10
2017-11-01T17:32:25.827Z,95.00
2017-11-01T17:35:27.987Z,95.00
2017-11-01T17:38:30.783Z,95.30
2017-11-01T17:41:32.687Z,95.00
2017-11-01T17:44:35.397Z,95.10
2017-11-01T17:47:37.338Z,94.80
2017-11-01T17:50:39.872Z,94.60
2017-11-01T17:53:41.832Z,94.60
2017-11-01T17:56:43.752Z,94.60
2017-11-01T17:59:46.214Z,94.60
2017-11-01T18:02:48.908Z,94.60
2017-11-01T18:05:50.803Z,94.60
2017-11-01T18:08:54.177Z,94.60
2017-11-01T18:11:56.246Z,94.60
2017-11-01T18:14:58.254Z,94.60
2017-11-01T18:18:00.192Z,94.50
2017-11-01T18:21:02.116Z,94.50
2017-11-01T18:24:04.048Z,94.40
2017-11-01T18:27:06.011Z,94.60
2017-11-01T18:30:08.703Z,94.50
2017-11-01T18:33:12.295Z,94.80
2017-11-01T18:36:14.285Z,94.50
2017-11-01T18:39:16.241Z,94.50
2017-11-01T18:42:18.247Z,94.40
2017-11-01T18:45:20.268Z,94.60
2017-11-01T18:48:22.926Z,94.40
2017-11-01T18:51:24.927Z,94.40
2017-11-01T18:54:26.824Z,94.70
2017-11-01T18:57:29.534Z,94.30
2017-11-01T19:00:32.328Z,94.30
2017-11-01T19:03:35.024Z,94.30
2017-11-01T19:06:37.677Z,94.40
2017-11-01T19:09:39.834Z,94.40
2017-11-01T19:12:41.861Z,94.40
2017-11-01T19:15:43.858Z,94.40
2017-11-01T19:18:45.771Z,94.30
2017-11-01T19:21:48.458Z,94.30
2017-11-01T19:24:50.438Z,94.30
2017-11-01T19:27:52.394Z,94.30
2017-11-01T19:30:54.342Z,94.30
2017-11-01T19:33:56.400Z,94.30
2017-11-01T19:36:59.074Z,94.30
2017-11-01T19:40:01.045Z,94.30
2017-11-01T19:43:03.061Z,94.20
2017-11-01T19:46:05.772Z,94.20
2017-11-01T19:49:08.531Z,94.10
2017-11-01T19:52:10.676Z,94.10
2017-11-01T19:55:12.603Z,94.10
2017-11-01T19:58:14.587Z,94.20
2017-11-01T20:01:16.486Z,94.20
2017-11-01T20:04:19.956Z,94.20
2017-11-01T20:07:21.859Z,94.20
2017-11-01T20:10:23.809Z,94.10
2017-11-01T20:13:25.839Z,94.20
2017-11-01T20:16:27.907Z,94.20
2017-11-01T20:19:29.837Z,94.30
2017-11-01T20:22:32.618Z,94.50
2017-11-01T20:25:34.590Z,94.50
2017-11-01T20:28:36.518Z,94.60
2017-11-01T20:31:38.466Z,94.50
2017-11-01T20:34:41.266Z,94.70
2017-11-01T20:37:43.249Z,94.80
2017-11-01T20:40:45.211Z,94.60
2017-11-01T20:43:47.164Z,94.60
2017-11-01T20:46:49.174Z,94.70
2017-11-01T20:49:51.206Z,94.60
2017-11-01T20:52:53.163Z,94.60
2017-11-01T20:55:55.058Z,94.60
2017-11-01T20:58:58.427Z,94.60
2017-11-01T21:02:00.349Z,94.60
2017-11-01T21:05:03.061Z,94.70
2017-11-01T21:08:05.836Z,94.60
2017-11-01T21:11:07.801Z,94.60
2017-11-01T21:14:09.837Z,94.70
2017-11-01T21:17:12.553Z,94.80
2017-11-01T21:20:14.491Z,94.80
2017-11-01T21:23:16.430Z,94.80
2017-11-01T21:26:18.441Z,94.70
2017-11-01T21:29:20.446Z,94.60
2017-11-01T21:32:22.422Z,94.40
2017-11-01T21:35:24.366Z,94.50
2017-11-01T21:38:26.293Z,94.20
2017-11-01T21:41:28.276Z,94.20
2017-11-01T21:44:30.260Z,93.80
2017-11-01T21:47:32.224Z,94.20
2017-11-01T21:50:34.218Z,94.10
2017-11-01T21:53:36.186Z,94.10
2017-11-01T21:56:38.167Z,93.90
2017-11-01T21:59:40.725Z,93.90
2017-11-01T22:02:43.705Z,93.80
2017-11-01T22:05:45.711Z,93.70
2017-11-01T22:08:47.662Z,93.80
2017-11-01T22:11:49.615Z,93.70
2017-11-01T22:14:51.717Z,93.80
2017-11-01T22:17:53.716Z,93.60
2017-11-01T22:20:55.674Z,93.80
2017-11-01T22:23:57.697Z,93.70
2017-11-01T22:27:00.364Z,93.60
2017-11-01T22:30:02.784Z,93.60
2017-11-01T22:33:04.733Z,93.60
2017-11-01T22:36:06.717Z,93.90
2017-11-01T22:39:08.642Z,93.60
2017-11-01T22:42:11.327Z,93.40
2017-11-01T22:45:13.281Z,93.40
2017-11-01T22:48:15.234Z,93.70
2017-11-01T22:51:17.165Z,93.30
2017-11-01T22:54:19.965Z,93.40
2017-11-01T22:57:21.962Z,93.40
2017-11-01T23:00:23.935Z,93.30
2017-11-01T23:03:26.330Z,93.20
2017-11-01T23:06:28.290Z,92.90
2017-11-01T23:09:30.183Z,92.80
2017-11-01T23:12:32.173Z,92.70
2017-11-01T23:15:35.594Z,92.40
2017-11-01T23:18:37.576Z,92.50
2017-11-01T23:21:39.565Z,92.50
2017-11-01T23:24:41.479Z,92.40
2017-11-01T23:27:43.493Z,91.80
2017-11-01T23:30:45.424Z,92.00
2017-11-01T23:33:48.186Z,91.90
2017-11-01T23:36:50.126Z,91.90
2017-11-01T23:39:52.041Z,91.60
2017-11-01T23:42:54.034Z,91.10
2017-11-01T23:45:56.058Z,91.00
2017-11-01T23:48:58.732Z,91.00
2017-11-01T23:52:00.667Z,91.00
2017-11-01T23:55:02.573Z,91.10
2017-11-01T23:58:04.556Z,90.70
